sensor_id;sensor_type;location;lat;lon;timestamp;temperature;humidity
31074;DHT22;17730;53.552;9.940;2023-04-01T00:02:16;11.00;99.90
31074;DHT22;17730;53.552;9.940;2023-04-01T00:04:42;11.00;99.90
31074;DHT22;17730;53.552;9.940;2023-04-01T00:07:08;11.00;99.90
31074;DHT22;17730;53.552;9.940;2023-04-01T00:09:33;11.00;99.90
31074;DHT22;17730;53.552;9.940;2023-04-01T00:12:00;11.00;99.90
31074;DHT22;17730;53.552;9.940;2023-04-01T00:14:26;11.00;99.90
31074;DHT22;17730;53.552;9.940;2023-04-01T00:16:51;11.00;99.90
31074;DHT22;17730;53.552;9.940;2023-04-01T00:19:17;11.00;99.90
31074;DHT22;17730;53.552;9.940;2023-04-01T00:21:43;11.00;99.90
31074;DHT22;17730;53.552;9.940;2023-04-01T00:24:09;11.00;99.90
31074;DHT22;17730;53.552;9.940;2023-04-01T00:26:34;11.00;99.90
31074;DHT22;17730;53.552;9.940;2023-04-01T00:29:00;11.00;99.90
31074;DHT22;17730;53.552;9.940;2023-04-01T00:31:26;10.90;99.90
31074;DHT22;17730;53.552;9.940;2023-04-01T00:33:52;10.90;99.90
31074;DHT22;17730;53.552;9.940;2023-04-01T00:36:19;10.90;99.90
31074;DHT22;17730;53.552;9.940;2023-04-01T00:38:45;10.90;99.90
31074;DHT22;17730;53.552;9.940;2023-04-01T00:41:11;10.90;99.90
31074;DHT22;17730;53.552;9.940;2023-04-01T00:43:40;10.90;99.90
31074;DHT22;17730;53.552;9.940;2023-04-01T00:46:06;10.90;99.90
31074;DHT22;17730;53.552;9.940;2023-04-01T00:48:35;10.80;99.90
31074;DHT22;17730;53.552;9.940;2023-04-01T00:51:02;10.80;99.90
31074;DHT22;17730;53.552;9.940;2023-04-01T00:53:30;10.90;99.90
31074;DHT22;17730;53.552;9.940;2023-04-01T00:56:00;10.80;99.90
31074;DHT22;17730;53.552;9.940;2023-04-01T00:58:27;10.80;99.90
31074;DHT22;17730;53.552;9.940;2023-04-01T01:00:54;10.80;99.90
31074;DHT22;17730;53.552;9.940;2023-04-01T01:03:20;10.80;99.90
31074;DHT22;17730;53.552;9.940;2023-04-01T01:05:51;10.80;99.90
31074;DHT22;17730;53.552;9.940;2023-04-01T01:08:25;10.80;99.90
31074;DHT22;17730;53.552;9.940;2023-04-01T01:10:56;10.80;99.90
31074;DHT22;17730;53.552;9.940;2023-04-01T01:13:25;10.80;99.90
31074;DHT22;17730;53.552;9.940;2023-04-01T01:18:38;10.80;99.90
31074;DHT22;17730;53.552;9.940;2023-04-01T01:21:09;10.80;99.90
31074;DHT22;17730;53.552;9.940;2023-04-01T01:29:13;10.80;99.90
31074;DHT22;17730;53.552;9.940;2023-04-01T01:34:40;10.80;99.90
31074;DHT22;17730;53.552;9.940;2023-04-01T01:37:14;10.80;99.90
31074;DHT22;17730;53.552;9.940;2023-04-01T01:39:40;10.80;99.90
31074;DHT22;17730;53.552;9.940;2023-04-01T01:42:07;10.80;99.90
31074;DHT22;17730;53.552;9.940;2023-04-01T01:44:35;10.80;99.90
31074;DHT22;17730;53.552;9.940;2023-04-01T01:47:02;10.80;99.90
31074;DHT22;17730;53.552;9.940;2023-04-01T01:49:27;10.80;99.90
31074;DHT22;17730;53.552;9.940;2023-04-01T01:51:55;10.80;99.90
31074;DHT22;17730;53.552;9.940;2023-04-01T01:54:21;10.80;99.90
31074;DHT22;17730;53.552;9.940;2023-04-01T01:56:48;10.80;99.90
31074;DHT22;17730;53.552;9.940;2023-04-01T01:59:14;10.80;99.90
31074;DHT22;17730;53.552;9.940;2023-04-01T02:01:41;10.80;99.90
31074;DHT22;17730;53.552;9.940;2023-04-01T02:04:07;10.80;99.90
31074;DHT22;17730;53.552;9.940;2023-04-01T02:06:36;10.70;99.90
31074;DHT22;17730;53.552;9.940;2023-04-01T02:09:06;10.70;99.90
31074;DHT22;17730;53.552;9.940;2023-04-01T02:14:02;10.70;99.90
31074;DHT22;17730;53.552;9.940;2023-04-01T02:16:37;10.70;99.90
31074;DHT22;17730;53.552;9.940;2023-04-01T02:19:04;10.70;99.90
31074;DHT22;17730;53.552;9.940;2023-04-01T02:21:32;10.70;99.90
31074;DHT22;17730;53.552;9.940;2023-04-01T02:23:58;10.70;99.90
31074;DHT22;17730;53.552;9.940;2023-04-01T02:26:25;10.70;99.90
31074;DHT22;17730;53.552;9.940;2023-04-01T02:28:52;10.70;99.90
31074;DHT22;17730;53.552;9.940;2023-04-01T02:31:18;10.70;99.90
31074;DHT22;17730;53.552;9.940;2023-04-01T02:33:43;10.70;99.90
31074;DHT22;17730;53.552;9.940;2023-04-01T02:36:11;10.70;99.90
31074;DHT22;17730;53.552;9.940;2023-04-01T02:38:37;10.70;99.90
31074;DHT22;17730;53.552;9.940;2023-04-01T02:41:03;10.70;99.90
31074;DHT22;17730;53.552;9.940;2023-04-01T02:43:30;10.70;99.90
31074;DHT22;17730;53.552;9.940;2023-04-01T02:45:55;10.70;99.90
31074;DHT22;17730;53.552;9.940;2023-04-01T02:48:21;10.70;99.90
31074;DHT22;17730;53.552;9.940;2023-04-01T02:50:46;10.80;99.90
31074;DHT22;17730;53.552;9.940;2023-04-01T02:53:12;10.70;99.90
31074;DHT22;17730;53.552;9.940;2023-04-01T02:55:37;10.80;99.90
31074;DHT22;17730;53.552;9.940;2023-04-01T02:58:03;10.70;99.90
31074;DHT22;17730;53.552;9.940;2023-04-01T03:00:28;10.70;99.90
31074;DHT22;17730;53.552;9.940;2023-04-01T03:02:54;10.80;99.90
31074;DHT22;17730;53.552;9.940;2023-04-01T03:05:20;10.80;99.90
31074;DHT22;17730;53.552;9.940;2023-04-01T03:07:46;10.70;99.90
31074;DHT22;17730;53.552;9.940;2023-04-01T03:10:11;10.70;99.90
31074;DHT22;17730;53.552;9.940;2023-04-01T03:12:37;10.70;99.90
31074;DHT22;17730;53.552;9.940;2023-04-01T03:15:02;10.70;99.90
31074;DHT22;17730;53.552;9.940;2023-04-01T03:17:28;10.70;99.90
31074;DHT22;17730;53.552;9.940;2023-04-01T03:19:53;10.70;99.90
31074;DHT22;17730;53.552;9.940;2023-04-01T03:22:19;10.70;99.90
31074;DHT22;17730;53.552;9.940;2023-04-01T03:24:46;10.70;99.90
31074;DHT22;17730;53.552;9.940;2023-04-01T03:27:12;10.70;99.90
31074;DHT22;17730;53.552;9.940;2023-04-01T03:29:38;10.70;99.90
31074;DHT22;17730;53.552;9.940;2023-04-01T03:32:03;10.60;99.90
31074;DHT22;17730;53.552;9.940;2023-04-01T03:34:29;10.60;99.90
31074;DHT22;17730;53.552;9.940;2023-04-01T03:36:55;10.60;99.90
31074;DHT22;17730;53.552;9.940;2023-04-01T03:39:20;10.60;99.90
31074;DHT22;17730;53.552;9.940;2023-04-01T03:41:46;10.60;99.90
31074;DHT22;17730;53.552;9.940;2023-04-01T03:44:11;10.60;99.90
31074;DHT22;17730;53.552;9.940;2023-04-01T03:46:37;10.60;99.90
31074;DHT22;17730;53.552;9.940;2023-04-01T03:49:05;10.60;99.90
31074;DHT22;17730;53.552;9.940;2023-04-01T03:51:37;10.60;99.90
31074;DHT22;17730;53.552;9.940;2023-04-01T03:54:02;10.70;99.90
31074;DHT22;17730;53.552;9.940;2023-04-01T03:56:27;10.70;99.90
31074;DHT22;17730;53.552;9.940;2023-04-01T03:58:53;10.60;99.90
31074;DHT22;17730;53.552;9.940;2023-04-01T04:01:20;10.70;99.90
31074;DHT22;17730;53.552;9.940;2023-04-01T04:03:46;10.70;99.90
31074;DHT22;17730;53.552;9.940;2023-04-01T04:06:12;10.70;99.90
31074;DHT22;17730;53.552;9.940;2023-04-01T04:08:38;10.60;99.90
31074;DHT22;17730;53.552;9.940;2023-04-01T04:11:03;10.60;99.90
31074;DHT22;17730;53.552;9.940;2023-04-01T04:13:28;10.60;99.90
31074;DHT22;17730;53.552;9.940;2023-04-01T04:15:54;10.60;99.90
31074;DHT22;17730;53.552;9.940;2023-04-01T04:18:19;10.60;99.90
31074;DHT22;17730;53.552;9.940;2023-04-01T04:20:45;10.60;99.90
31074;DHT22;17730;53.552;9.940;2023-04-01T04:23:13;10.60;99.90
31074;DHT22;17730;53.552;9.940;2023-04-01T04:25:39;10.60;99.90
31074;DHT22;17730;53.552;9.940;2023-04-01T04:30:31;10.70;99.90
31074;DHT22;17730;53.552;9.940;2023-04-01T04:32:56;10.70;99.90
31074;DHT22;17730;53.552;9.940;2023-04-01T04:35:22;10.60;99.90
31074;DHT22;17730;53.552;9.940;2023-04-01T04:37:47;10.60;99.90
31074;DHT22;17730;53.552;9.940;2023-04-01T04:40:13;10.60;99.90
31074;DHT22;17730;53.552;9.940;2023-04-01T04:42:38;10.70;99.90
31074;DHT22;17730;53.552;9.940;2023-04-01T04:45:04;10.60;99.90
31074;DHT22;17730;53.552;9.940;2023-04-01T04:47:29;10.60;99.90
31074;DHT22;17730;53.552;9.940;2023-04-01T04:49:55;10.60;99.90
31074;DHT22;17730;53.552;9.940;2023-04-01T04:52:20;10.60;99.90
31074;DHT22;17730;53.552;9.940;2023-04-01T04:54:46;10.60;99.90
31074;DHT22;17730;53.552;9.940;2023-04-01T04:57:11;10.60;99.90
31074;DHT22;17730;53.552;9.940;2023-04-01T04:59:37;10.60;99.90
31074;DHT22;17730;53.552;9.940;2023-04-01T05:02:02;10.60;99.90
31074;DHT22;17730;53.552;9.940;2023-04-01T05:04:27;10.60;99.90
31074;DHT22;17730;53.552;9.940;2023-04-01T05:06:53;10.60;99.90
31074;DHT22;17730;53.552;9.940;2023-04-01T05:09:18;10.60;99.90
31074;DHT22;17730;53.552;9.940;2023-04-01T05:11:44;10.60;99.90
31074;DHT22;17730;53.552;9.940;2023-04-01T05:14:14;10.60;99.90
31074;DHT22;17730;53.552;9.940;2023-04-01T05:16:39;10.60;99.90
31074;DHT22;17730;53.552;9.940;2023-04-01T05:19:05;10.60;99.90
31074;DHT22;17730;53.552;9.940;2023-04-01T05:21:30;10.60;99.90
31074;DHT22;17730;53.552;9.940;2023-04-01T05:23:56;10.60;99.90
31074;DHT22;17730;53.552;9.940;2023-04-01T05:26:21;10.60;99.90
31074;DHT22;17730;53.552;9.940;2023-04-01T05:28:46;10.60;99.90
31074;DHT22;17730;53.552;9.940;2023-04-01T05:31:12;10.60;99.90
31074;DHT22;17730;53.552;9.940;2023-04-01T05:33:37;10.60;99.90
31074;DHT22;17730;53.552;9.940;2023-04-01T05:36:07;10.60;99.90
31074;DHT22;17730;53.552;9.940;2023-04-01T05:38:33;10.60;99.90
31074;DHT22;17730;53.552;9.940;2023-04-01T05:40:59;10.60;99.90
31074;DHT22;17730;53.552;9.940;2023-04-01T05:43:25;10.50;99.90
31074;DHT22;17730;53.552;9.940;2023-04-01T05:45:50;10.50;99.90
31074;DHT22;17730;53.552;9.940;2023-04-01T05:48:16;10.00;99.90
31074;DHT22;17730;53.552;9.940;2023-04-01T05:50:41;9.60;99.90
31074;DHT22;17730;53.552;9.940;2023-04-01T05:53:07;9.40;99.90
31074;DHT22;17730;53.552;9.940;2023-04-01T05:55:34;9.30;99.90
31074;DHT22;17730;53.552;9.940;2023-04-01T05:57:59;9.20;99.90
31074;DHT22;17730;53.552;9.940;2023-04-01T06:00:25;9.10;99.90
31074;DHT22;17730;53.552;9.940;2023-04-01T06:02:50;9.00;99.90
31074;DHT22;17730;53.552;9.940;2023-04-01T06:05:21;9.00;99.90
31074;DHT22;17730;53.552;9.940;2023-04-01T06:07:47;8.90;99.90
31074;DHT22;17730;53.552;9.940;2023-04-01T06:10:14;8.80;99.90
31074;DHT22;17730;53.552;9.940;2023-04-01T06:12:58;8.80;99.90
31074;DHT22;17730;53.552;9.940;2023-04-01T06:15:52;8.70;99.90
31074;DHT22;17730;53.552;9.940;2023-04-01T06:28:37;8.40;99.90
31074;DHT22;17730;53.552;9.940;2023-04-01T06:31:10;8.40;99.90
31074;DHT22;17730;53.552;9.940;2023-04-01T06:33:43;8.30;99.90
31074;DHT22;17730;53.552;9.940;2023-04-01T06:39:06;8.30;99.90
31074;DHT22;17730;53.552;9.940;2023-04-01T06:46:50;8.20;99.90
31074;DHT22;17730;53.552;9.940;2023-04-01T06:49:25;8.20;99.90
31074;DHT22;17730;53.552;9.940;2023-04-01T06:52:16;8.00;99.90
31074;DHT22;17730;53.552;9.940;2023-04-01T06:54:51;8.00;99.90
31074;DHT22;17730;53.552;9.940;2023-04-01T06:57:20;8.00;99.90
31074;DHT22;17730;53.552;9.940;2023-04-01T06:59:47;8.00;99.90
31074;DHT22;17730;53.552;9.940;2023-04-01T07:04:40;7.90;99.90
31074;DHT22;17730;53.552;9.940;2023-04-01T07:07:11;8.00;99.90
31074;DHT22;17730;53.552;9.940;2023-04-01T07:09:38;8.00;99.90
31074;DHT22;17730;53.552;9.940;2023-04-01T07:14:46;7.80;99.90
31074;DHT22;17730;53.552;9.940;2023-04-01T07:17:17;7.80;99.90
31074;DHT22;17730;53.552;9.940;2023-04-01T07:19:46;7.80;99.90
31074;DHT22;17730;53.552;9.940;2023-04-01T07:22:29;7.70;99.90
31074;DHT22;17730;53.552;9.940;2023-04-01T07:24:56;7.70;99.90
31074;DHT22;17730;53.552;9.940;2023-04-01T07:27:26;7.60;99.90
31074;DHT22;17730;53.552;9.940;2023-04-01T07:29:52;7.60;99.90
31074;DHT22;17730;53.552;9.940;2023-04-01T07:32:32;7.60;99.90
31074;DHT22;17730;53.552;9.940;2023-04-01T07:45:34;7.40;99.90
31074;DHT22;17730;53.552;9.940;2023-04-01T07:50:41;7.40;99.90
31074;DHT22;17730;53.552;9.940;2023-04-01T07:56:10;7.40;99.90
31074;DHT22;17730;53.552;9.940;2023-04-01T07:58:44;7.40;99.90
31074;DHT22;17730;53.552;9.940;2023-04-01T08:01:23;7.40;99.90
31074;DHT22;17730;53.552;9.940;2023-04-01T08:06:29;7.30;99.90
31074;DHT22;17730;53.552;9.940;2023-04-01T08:11:28;7.40;99.90
31074;DHT22;17730;53.552;9.940;2023-04-01T08:14:02;7.40;99.90
31074;DHT22;17730;53.552;9.940;2023-04-01T08:16:31;7.30;99.90
31074;DHT22;17730;53.552;9.940;2023-04-01T08:19:15;7.40;99.90
31074;DHT22;17730;53.552;9.940;2023-04-01T08:21:46;7.40;99.90
31074;DHT22;17730;53.552;9.940;2023-04-01T08:26:45;7.30;99.90
31074;DHT22;17730;53.552;9.940;2023-04-01T08:29:14;7.30;99.90
31074;DHT22;17730;53.552;9.940;2023-04-01T08:31:51;7.30;99.90
31074;DHT22;17730;53.552;9.940;2023-04-01T08:34:21;7.20;99.90
31074;DHT22;17730;53.552;9.940;2023-04-01T08:36:50;7.20;99.90
31074;DHT22;17730;53.552;9.940;2023-04-01T08:39:24;7.10;99.90
31074;DHT22;17730;53.552;9.940;2023-04-01T08:54:30;7.40;99.90
31074;DHT22;17730;53.552;9.940;2023-04-01T08:57:13;7.40;99.90
31074;DHT22;17730;53.552;9.940;2023-04-01T09:07:31;7.40;99.90
31074;DHT22;17730;53.552;9.940;2023-04-01T09:12:51;7.30;99.90
31074;DHT22;17730;53.552;9.940;2023-04-01T09:27:54;7.50;99.90
31074;DHT22;17730;53.552;9.940;2023-04-01T09:30:28;7.60;29.30
31074;DHT22;17730;53.552;9.940;2023-04-01T09:40:45;7.70;21.10
31074;DHT22;17730;53.552;9.940;2023-04-01T09:45:43;7.60;1.00
31074;DHT22;17730;53.552;9.940;2023-04-01T09:48:17;7.50;1.00
31074;DHT22;17730;53.552;9.940;2023-04-01T09:51:00;7.60;1.00
31074;DHT22;17730;53.552;9.940;2023-04-01T09:53:36;7.50;1.00
31074;DHT22;17730;53.552;9.940;2023-04-01T09:56:08;7.50;1.60
31074;DHT22;17730;53.552;9.940;2023-04-01T10:09:13;7.50;1.00
31074;DHT22;17730;53.552;9.940;2023-04-01T10:14:22;7.50;1.00
31074;DHT22;17730;53.552;9.940;2023-04-01T10:27:03;7.60;1.00
31074;DHT22;17730;53.552;9.940;2023-04-01T11:12:03;7.70;1.00
31074;DHT22;17730;53.552;9.940;2023-04-01T11:20:40;7.60;99.90
31074;DHT22;17730;53.552;9.940;2023-04-01T11:25:17;7.50;99.90
31074;DHT22;17730;53.552;9.940;2023-04-01T11:30:18;7.30;1.00
31074;DHT22;17730;53.552;9.940;2023-04-01T11:33:00;7.40;1.00
31074;DHT22;17730;53.552;9.940;2023-04-01T11:35:31;7.40;1.00
31074;DHT22;17730;53.552;9.940;2023-04-01T11:43:12;7.40;1.00
31074;DHT22;17730;53.552;9.940;2023-04-01T11:45:46;7.50;1.00
31074;DHT22;17730;53.552;9.940;2023-04-01T11:53:34;7.50;99.90
31074;DHT22;17730;53.552;9.940;2023-04-01T11:58:49;7.50;1.00
31074;DHT22;17730;53.552;9.940;2023-04-01T12:03:51;7.40;1.00
31074;DHT22;17730;53.552;9.940;2023-04-01T12:14:11;7.10;99.90
31074;DHT22;17730;53.552;9.940;2023-04-01T12:17:07;7.10;1.00
31074;DHT22;17730;53.552;9.940;2023-04-01T12:19:48;7.10;1.00
31074;DHT22;17730;53.552;9.940;2023-04-01T12:24:55;7.00;1.00
31074;DHT22;17730;53.552;9.940;2023-04-01T12:27:43;7.00;1.00
31074;DHT22;17730;53.552;9.940;2023-04-01T12:33:00;7.00;1.00
31074;DHT22;17730;53.552;9.940;2023-04-01T12:41:01;6.80;1.00
31074;DHT22;17730;53.552;9.940;2023-04-01T12:46:09;6.90;99.90
31074;DHT22;17730;53.552;9.940;2023-04-01T12:56:03;6.90;99.90
31074;DHT22;17730;53.552;9.940;2023-04-01T13:16:42;6.70;99.90
31074;DHT22;17730;53.552;9.940;2023-04-01T13:22:03;6.80;99.90
31074;DHT22;17730;53.552;9.940;2023-04-01T13:24:45;6.80;99.90
31074;DHT22;17730;53.552;9.940;2023-04-01T13:27:49;6.80;99.90
31074;DHT22;17730;53.552;9.940;2023-04-01T13:35:40;6.60;99.90
31074;DHT22;17730;53.552;9.940;2023-04-01T13:43:47;6.70;99.90
31074;DHT22;17730;53.552;9.940;2023-04-01T13:48:42;6.50;99.90
31074;DHT22;17730;53.552;9.940;2023-04-01T14:08:04;6.50;20.40
31074;DHT22;17730;53.552;9.940;2023-04-01T14:10:40;6.50;99.90
31074;DHT22;17730;53.552;9.940;2023-04-01T14:13:17;6.50;76.80
31074;DHT22;17730;53.552;9.940;2023-04-01T14:18:30;6.40;57.70
31074;DHT22;17730;53.552;9.940;2023-04-01T14:29:27;6.50;1.00
31074;DHT22;17730;53.552;9.940;2023-04-01T14:34:47;6.50;1.00
31074;DHT22;17730;53.552;9.940;2023-04-01T14:37:31;6.50;1.00
31074;DHT22;17730;53.552;9.940;2023-04-01T14:40:06;6.60;16.00
31074;DHT22;17730;53.552;9.940;2023-04-01T14:42:48;6.60;1.00
31074;DHT22;17730;53.552;9.940;2023-04-01T14:47:59;6.50;99.90
31074;DHT22;17730;53.552;9.940;2023-04-01T14:50:31;6.50;99.90
31074;DHT22;17730;53.552;9.940;2023-04-01T14:53:51;6.50;99.90
31074;DHT22;17730;53.552;9.940;2023-04-01T14:58:24;6.30;8.90
31074;DHT22;17730;53.552;9.940;2023-04-01T15:03:38;6.20;11.10
31074;DHT22;17730;53.552;9.940;2023-04-01T15:16:47;6.20;99.90
31074;DHT22;17730;53.552;9.940;2023-04-01T15:34:28;6.20;99.90
31074;DHT22;17730;53.552;9.940;2023-04-01T15:37:14;6.10;99.90
31074;DHT22;17730;53.552;9.940;2023-04-01T15:42:24;5.90;99.90
31074;DHT22;17730;53.552;9.940;2023-04-01T15:44:59;6.00;99.90
31074;DHT22;17730;53.552;9.940;2023-04-01T15:47:34;6.00;99.90
31074;DHT22;17730;53.552;9.940;2023-04-01T15:55:32;5.90;99.90
31074;DHT22;17730;53.552;9.940;2023-04-01T15:58:02;5.90;99.90
31074;DHT22;17730;53.552;9.940;2023-04-01T16:03:29;5.80;1.00
31074;DHT22;17730;53.552;9.940;2023-04-01T16:13:46;5.60;99.90
31074;DHT22;17730;53.552;9.940;2023-04-01T16:16:39;5.60;99.90
31074;DHT22;17730;53.552;9.940;2023-04-01T16:21:52;5.70;1.00
31074;DHT22;17730;53.552;9.940;2023-04-01T16:26:48;5.60;99.90
31074;DHT22;17730;53.552;9.940;2023-04-01T16:35:39;5.60;1.00
31074;DHT22;17730;53.552;9.940;2023-04-01T16:37:52;5.50;99.90
31074;DHT22;17730;53.552;9.940;2023-04-01T16:40:28;5.60;99.90
31074;DHT22;17730;53.552;9.940;2023-04-01T16:43:06;5.60;99.90
31074;DHT22;17730;53.552;9.940;2023-04-01T16:45:37;5.50;99.90
31074;DHT22;17730;53.552;9.940;2023-04-01T16:50:43;5.40;99.90
31074;DHT22;17730;53.552;9.940;2023-04-01T16:58:26;5.30;99.90
31074;DHT22;17730;53.552;9.940;2023-04-01T17:00:58;5.40;99.90
31074;DHT22;17730;53.552;9.940;2023-04-01T17:03:27;5.30;99.90
31074;DHT22;17730;53.552;9.940;2023-04-01T17:06:07;5.30;99.90
31074;DHT22;17730;53.552;9.940;2023-04-01T17:08:57;5.30;99.90
31074;DHT22;17730;53.552;9.940;2023-04-01T17:14:13;5.30;99.90
31074;DHT22;17730;53.552;9.940;2023-04-01T17:19:27;5.10;99.90
31074;DHT22;17730;53.552;9.940;2023-04-01T17:22:13;5.10;99.90
31074;DHT22;17730;53.552;9.940;2023-04-01T17:25:02;5.00;99.90
31074;DHT22;17730;53.552;9.940;2023-04-01T17:40:26;5.10;1.00
31074;DHT22;17730;53.552;9.940;2023-04-01T18:03:29;5.00;99.90
31074;DHT22;17730;53.552;9.940;2023-04-01T18:06:03;5.00;99.90
31074;DHT22;17730;53.552;9.940;2023-04-01T18:14:01;5.00;99.90
31074;DHT22;17730;53.552;9.940;2023-04-01T18:19:26;5.00;99.90
31074;DHT22;17730;53.552;9.940;2023-04-01T18:22:06;5.00;99.90
31074;DHT22;17730;53.552;9.940;2023-04-01T18:24:34;4.90;1.00
31074;DHT22;17730;53.552;9.940;2023-04-01T18:29:31;4.90;1.00
31074;DHT22;17730;53.552;9.940;2023-04-01T18:34:44;4.80;1.00
31074;DHT22;17730;53.552;9.940;2023-04-01T18:37:18;4.80;99.90
31074;DHT22;17730;53.552;9.940;2023-04-01T18:47:38;4.70;99.90
31074;DHT22;17730;53.552;9.940;2023-04-01T18:52:46;4.60;99.90
31074;DHT22;17730;53.552;9.940;2023-04-01T18:55:21;4.60;99.90
31074;DHT22;17730;53.552;9.940;2023-04-01T18:57:56;4.60;99.90
31074;DHT22;17730;53.552;9.940;2023-04-01T19:02:58;4.60;99.90
31074;DHT22;17730;53.552;9.940;2023-04-01T19:05:29;4.50;99.90
31074;DHT22;17730;53.552;9.940;2023-04-01T19:07:55;4.60;99.90
31074;DHT22;17730;53.552;9.940;2023-04-01T19:10:38;4.50;99.90
31074;DHT22;17730;53.552;9.940;2023-04-01T19:21:14;4.50;1.00
31074;DHT22;17730;53.552;9.940;2023-04-01T19:24:03;4.50;1.00
31074;DHT22;17730;53.552;9.940;2023-04-01T19:31:51;4.50;99.90
31074;DHT22;17730;53.552;9.940;2023-04-01T19:41:54;4.50;1.00
31074;DHT22;17730;53.552;9.940;2023-04-01T19:44:28;4.50;1.00
31074;DHT22;17730;53.552;9.940;2023-04-01T19:49:53;4.50;14.10
31074;DHT22;17730;53.552;9.940;2023-04-01T19:55:02;4.40;76.30
31074;DHT22;17730;53.552;9.940;2023-04-01T19:57:45;4.40;1.50
31074;DHT22;17730;53.552;9.940;2023-04-01T20:02:52;4.40;10.20
31074;DHT22;17730;53.552;9.940;2023-04-01T20:07:48;4.20;96.60
31074;DHT22;17730;53.552;9.940;2023-04-01T20:10:18;4.20;55.20
31074;DHT22;17730;53.552;9.940;2023-04-01T20:12:47;4.10;99.90
31074;DHT22;17730;53.552;9.940;2023-04-01T20:15:31;4.10;99.90
31074;DHT22;17730;53.552;9.940;2023-04-01T20:17:59;4.00;99.90
31074;DHT22;17730;53.552;9.940;2023-04-01T20:20:26;3.90;99.90
31074;DHT22;17730;53.552;9.940;2023-04-01T20:23:07;3.90;99.90
31074;DHT22;17730;53.552;9.940;2023-04-01T20:46:37;3.70;1.00
31074;DHT22;17730;53.552;9.940;2023-04-01T20:49:24;3.70;99.90
31074;DHT22;17730;53.552;9.940;2023-04-01T20:54:36;3.60;9.90
31074;DHT22;17730;53.552;9.940;2023-04-01T20:57:11;3.50;52.90
31074;DHT22;17730;53.552;9.940;2023-04-01T21:02:08;3.40;1.00
31074;DHT22;17730;53.552;9.940;2023-04-01T21:07:55;3.30;1.00
31074;DHT22;17730;53.552;9.940;2023-04-01T21:12:51;3.20;1.00
31074;DHT22;17730;53.552;9.940;2023-04-01T21:15:25;3.20;5.10
31074;DHT22;17730;53.552;9.940;2023-04-01T21:25:19;3.10;99.90
31074;DHT22;17730;53.552;9.940;2023-04-01T21:27:56;3.10;99.90
31074;DHT22;17730;53.552;9.940;2023-04-01T21:35:58;3.00;1.00
31074;DHT22;17730;53.552;9.940;2023-04-01T21:38:32;3.00;1.00
31074;DHT22;17730;53.552;9.940;2023-04-01T21:41:05;2.90;25.90
31074;DHT22;17730;53.552;9.940;2023-04-01T21:43:43;2.90;50.60
31074;DHT22;17730;53.552;9.940;2023-04-01T21:46:31;2.80;99.90
31074;DHT22;17730;53.552;9.940;2023-04-01T21:49:21;2.90;21.80
31074;DHT22;17730;53.552;9.940;2023-04-01T21:59:48;2.70;99.90
31074;DHT22;17730;53.552;9.940;2023-04-01T22:07:21;2.70;99.90
31074;DHT22;17730;53.552;9.940;2023-04-01T22:09:54;2.70;99.90
31074;DHT22;17730;53.552;9.940;2023-04-01T22:17:28;2.60;99.90
31074;DHT22;17730;53.552;9.940;2023-04-01T22:22:22;2.60;99.90
31074;DHT22;17730;53.552;9.940;2023-04-01T22:27:23;2.60;99.90
31074;DHT22;17730;53.552;9.940;2023-04-01T22:32:38;2.50;99.90
31074;DHT22;17730;53.552;9.940;2023-04-01T22:40:29;2.50;99.90
31074;DHT22;17730;53.552;9.940;2023-04-01T22:43:05;2.50;99.90
31074;DHT22;17730;53.552;9.940;2023-04-01T22:48:20;2.40;99.90
31074;DHT22;17730;53.552;9.940;2023-04-01T22:51:20;2.40;99.90
31074;DHT22;17730;53.552;9.940;2023-04-01T22:56:05;2.40;99.90
31074;DHT22;17730;53.552;9.940;2023-04-01T22:58:50;2.40;99.90
31074;DHT22;17730;53.552;9.940;2023-04-01T23:01:20;2.40;99.90
31074;DHT22;17730;53.552;9.940;2023-04-01T23:03:48;2.40;99.90
31074;DHT22;17730;53.552;9.940;2023-04-01T23:06:17;2.40;99.90
31074;DHT22;17730;53.552;9.940;2023-04-01T23:11:11;2.30;1.00
31074;DHT22;17730;53.552;9.940;2023-04-01T23:13:41;2.30;1.00
31074;DHT22;17730;53.552;9.940;2023-04-01T23:16:08;2.30;1.00
31074;DHT22;17730;53.552;9.940;2023-04-01T23:18:36;2.20;1.00
31074;DHT22;17730;53.552;9.940;2023-04-01T23:21:09;2.20;1.00
31074;DHT22;17730;53.552;9.940;2023-04-01T23:23:45;2.30;1.00
31074;DHT22;17730;53.552;9.940;2023-04-01T23:26:29;2.20;1.00
31074;DHT22;17730;53.552;9.940;2023-04-01T23:28:55;2.20;1.00
31074;DHT22;17730;53.552;9.940;2023-04-01T23:31:26;2.20;1.00
31074;DHT22;17730;53.552;9.940;2023-04-01T23:33:55;2.20;1.00
31074;DHT22;17730;53.552;9.940;2023-04-01T23:36:21;2.20;1.00
31074;DHT22;17730;53.552;9.940;2023-04-01T23:38:47;2.20;1.00
31074;DHT22;17730;53.552;9.940;2023-04-01T23:41:20;2.10;3.20
31074;DHT22;17730;53.552;9.940;2023-04-01T23:43:55;2.20;1.00
31074;DHT22;17730;53.552;9.940;2023-04-01T23:46:21;2.10;2.30
31074;DHT22;17730;53.552;9.940;2023-04-01T23:48:47;2.10;1.00
31074;DHT22;17730;53.552;9.940;2023-04-01T23:51:17;2.10;99.90
31074;DHT22;17730;53.552;9.940;2023-04-01T23:53:44;2.10;99.90
31074;DHT22;17730;53.552;9.940;2023-04-01T23:56:10;2.10;99.90
31074;DHT22;17730;53.552;9.940;2023-04-01T23:58:43;2.10;1.00
